Time;durP1;ratioP1;P1;durP2;ratioP2;P2;SDS_P1;SDS_P2;PMS_P1;PMS_P2;Temp;Humidity;BMP_temperature;BMP_pressure;BME280_temperature;BME280_humidity;BME280_pressure;Samples;Min_cycle;Max_cycle;Signal;HPM_P1;HPM_P2
2022/07/16 00:02:38;;;;;;;4.72;2.38;;;13.10;99.90;;;;;;5014978;28;20033;-74
2022/07/16 00:05:05;;;;;;;3.22;2.20;;;13.20;99.90;;;;;;5014417;28;20392;-74
2022/07/16 00:07:30;;;;;;;3.33;2.55;;;13.00;99.90;;;;;;5014418;28;20428;-74
2022/07/16 00:09:58;;;;;;;4.65;2.60;;;12.60;99.90;;;;;;5014361;28;20119;-73
2022/07/16 00:12:24;;;;;;;3.08;2.47;;;12.90;99.90;;;;;;5013500;28;20022;-74
2022/07/16 00:14:50;;;;;;;6.13;2.47;;;12.80;99.90;;;;;;5012839;28;20113;-74
2022/07/16 00:17:16;;;;;;;4.03;2.55;;;12.80;99.90;;;;;;5014308;28;20105;-74
2022/07/16 00:19:41;;;;;;;5.03;2.40;;;12.90;99.90;;;;;;5012982;28;20247;-74
2022/07/16 00:22:08;;;;;;;3.38;2.53;;;12.90;99.90;;;;;;5013564;28;20045;-74
2022/07/16 00:24:34;;;;;;;4.85;2.47;;;12.90;99.90;;;;;;5014074;28;20022;-74
2022/07/16 00:27:00;;;;;;;4.15;2.42;;;12.90;99.90;;;;;;5014043;28;20447;-74
2022/07/16 00:29:25;;;;;;;3.63;2.60;;;12.80;99.90;;;;;;5014064;28;20026;-74
2022/07/16 00:31:52;;;;;;;4.35;2.42;;;12.30;99.90;;;;;;5013225;28;20022;-73
2022/07/16 00:34:18;;;;;;;4.43;2.70;;;12.20;99.90;;;;;;5013971;28;20485;-74
2022/07/16 00:36:44;;;;;;;3.80;2.72;;;12.30;99.90;;;;;;5024844;28;20021;-74
2022/07/16 00:39:10;;;;;;;4.82;2.70;;;12.40;99.90;;;;;;5020957;28;20546;-74
2022/07/16 00:41:40;;;;;;;4.65;2.60;;;12.50;99.90;;;;;;5025188;28;20026;-74
2022/07/16 00:44:08;;;;;;;7.30;3.10;;;12.20;99.90;;;;;;5013697;28;20064;-74
2022/07/16 00:46:36;;;;;;;2.92;2.17;;;12.40;99.90;;;;;;5013415;28;20025;-73
2022/07/16 00:49:02;;;;;;;5.70;2.97;;;12.70;99.90;;;;;;5013644;28;20507;-74
2022/07/16 00:51:29;;;;;;;4.05;2.40;;;12.80;99.90;;;;;;5013138;28;20037;-74
2022/07/16 00:53:55;;;;;;;3.58;2.30;;;12.60;99.90;;;;;;5013505;28;20033;-74
2022/07/16 00:56:22;;;;;;;4.60;2.20;;;12.70;99.90;;;;;;5013546;28;20355;-73
2022/07/16 00:58:49;;;;;;;5.40;2.30;;;12.80;99.90;;;;;;5010500;28;20034;-73
2022/07/16 01:01:15;;;;;;;4.22;2.30;;;12.80;99.90;;;;;;5011881;28;20392;-74
2022/07/16 01:03:42;;;;;;;4.90;2.28;;;12.90;99.90;;;;;;5010117;28;20448;-74
2022/07/16 01:06:10;;;;;;;3.15;2.20;;;12.80;99.90;;;;;;5008942;28;20037;-74
2022/07/16 01:08:40;;;;;;;4.35;2.10;;;12.70;99.90;;;;;;5008248;28;20030;-74
2022/07/16 01:11:09;;;;;;;6.32;2.38;;;12.70;99.90;;;;;;5008210;28;20033;-74
2022/07/16 01:13:37;;;;;;;4.75;2.30;;;12.70;99.90;;;;;;5011686;28;20030;-74
2022/07/16 01:16:02;;;;;;;2.92;1.95;;;12.80;99.90;;;;;;5023555;28;20068;-74
2022/07/16 01:18:30;;;;;;;4.38;2.28;;;12.60;99.90;;;;;;5011291;28;20029;-74
2022/07/16 01:20:55;;;;;;;4.22;2.38;;;12.80;99.90;;;;;;5012446;28;20022;-74
2022/07/16 01:23:22;;;;;;;4.07;2.05;;;12.80;99.90;;;;;;5010796;28;20034;-74
2022/07/16 01:25:49;;;;;;;5.47;2.33;;;12.80;99.90;;;;;;5012980;28;20030;-74
2022/07/16 01:28:15;;;;;;;3.20;2.08;;;12.90;99.90;;;;;;5012877;28;20038;-73
2022/07/16 01:30:41;;;;;;;3.65;2.13;;;12.80;99.90;;;;;;5012570;28;20030;-74
2022/07/16 01:33:29;;;;;;;4.45;2.20;;;12.70;99.90;;;;;;5012749;28;20480;-74
2022/07/16 01:35:58;;;;;;;3.70;2.28;;;12.60;99.90;;;;;;5012712;28;20072;-74
2022/07/16 01:38:24;;;;;;;3.65;2.40;;;12.50;99.90;;;;;;5012737;28;20029;-74
2022/07/16 01:40:50;;;;;;;4.72;2.22;;;12.40;99.90;;;;;;5012203;28;20032;-74
2022/07/16 01:43:21;;;;;;;2.80;2.50;;;11.60;99.90;;;;;;5012770;28;20040;-74
2022/07/16 01:45:46;;;;;;;4.70;2.80;;;10.70;99.90;;;;;;5012475;28;20121;-73
2022/07/16 01:48:13;;;;;;;7.00;2.50;;;10.50;99.90;;;;;;5012456;28;20117;-73
2022/07/16 01:50:40;;;;;;;3.08;2.20;;;10.90;99.90;;;;;;5011832;28;20032;-74
2022/07/16 01:53:06;;;;;;;4.38;2.67;;;10.90;99.90;;;;;;5008024;28;20424;-74
2022/07/16 01:55:33;;;;;;;3.70;2.20;;;11.00;99.90;;;;;;5011215;28;20457;-74
2022/07/16 01:58:00;;;;;;;2.88;2.50;;;10.90;99.90;;;;;;5012495;28;20017;-74
2022/07/16 02:00:27;;;;;;;4.82;2.75;;;10.90;99.90;;;;;;5011691;28;20072;-73
2022/07/16 02:02:53;;;;;;;5.40;2.95;;;10.80;99.90;;;;;;5012328;28;20100;-73
2022/07/16 02:05:18;;;;;;;4.95;2.58;;;10.60;99.90;;;;;;5012282;28;20037;-74
2022/07/16 02:07:44;;;;;;;2.95;2.50;;;10.80;99.90;;;;;;5012280;28;20388;-73
2022/07/16 02:10:10;;;;;;;4.60;2.63;;;10.90;99.90;;;;;;5030733;28;20025;-74
2022/07/16 02:12:35;;;;;;;3.72;2.25;;;10.90;99.90;;;;;;5031197;28;20512;-74
2022/07/16 02:15:01;;;;;;;4.95;2.60;;;10.90;99.90;;;;;;5032120;28;20021;-74
2022/07/16 02:17:27;;;;;;;3.30;2.35;;;11.10;99.90;;;;;;5031749;28;20418;-73
2022/07/16 02:19:52;;;;;;;5.05;2.60;;;11.00;99.90;;;;;;5031630;28;20030;-73
2022/07/16 02:22:18;;;;;;;5.90;2.63;;;11.10;99.90;;;;;;5031196;28;20072;-74
2022/07/16 02:24:43;;;;;;;3.20;2.63;;;11.00;99.90;;;;;;5031567;28;20053;-74
2022/07/16 02:27:09;;;;;;;3.67;2.53;;;10.80;99.90;;;;;;5031692;28;20694;-74
2022/07/16 02:29:35;;;;;;;3.83;2.90;;;10.70;99.90;;;;;;5031603;28;20026;-73
2022/07/16 02:32:00;;;;;;;3.35;2.20;;;10.40;99.90;;;;;;5030842;28;20069;-74
2022/07/16 02:34:26;;;;;;;4.72;2.92;;;10.40;99.90;;;;;;5031467;28;20472;-73
2022/07/16 02:36:51;;;;;;;5.15;2.83;;;10.60;99.90;;;;;;5031568;28;20377;-73
2022/07/16 02:39:17;;;;;;;5.60;2.92;;;10.60;99.90;;;;;;5023528;28;20021;-73
2022/07/16 02:41:42;;;;;;;3.92;2.50;;;10.80;99.90;;;;;;5011249;28;20139;-74
2022/07/16 02:44:08;;;;;;;3.65;2.58;;;10.50;99.90;;;;;;5011659;28;20030;-74
2022/07/16 02:46:34;;;;;;;5.82;2.75;;;10.60;99.90;;;;;;5011390;28;20022;-74
2022/07/16 02:48:59;;;;;;;4.68;2.80;;;10.30;99.90;;;;;;5010481;28;20068;-73
2022/07/16 02:51:25;;;;;;;4.90;2.63;;;10.20;99.90;;;;;;5011310;28;20033;-73
2022/07/16 02:53:51;;;;;;;6.07;2.95;;;10.50;99.90;;;;;;5011508;28;20045;-73
2022/07/16 02:56:16;;;;;;;4.82;2.70;;;10.50;99.90;;;;;;5011657;28;20065;-74
2022/07/16 02:58:42;;;;;;;4.25;3.00;;;10.50;99.90;;;;;;5011532;28;20033;-73
2022/07/16 03:01:08;;;;;;;3.92;2.70;;;10.50;99.90;;;;;;5010812;28;20455;-74
2022/07/16 03:03:33;;;;;;;4.07;2.70;;;10.40;99.90;;;;;;5012396;28;20033;-73
2022/07/16 03:05:59;;;;;;;5.88;3.00;;;10.50;99.90;;;;;;5012010;28;20040;-73
2022/07/16 03:08:25;;;;;;;4.88;2.78;;;10.30;99.90;;;;;;5011496;28;20109;-73
2022/07/16 03:10:50;;;;;;;4.53;2.53;;;10.10;99.90;;;;;;5011186;28;20030;-73
2022/07/16 03:13:16;;;;;;;4.47;3.00;;;9.90;99.90;;;;;;5011872;28;20508;-73
2022/07/16 03:15:42;;;;;;;3.88;2.80;;;9.90;99.90;;;;;;5011438;28;20022;-73
2022/07/16 03:18:07;;;;;;;3.95;2.92;;;9.80;99.90;;;;;;5011399;28;20068;-73
2022/07/16 03:20:33;;;;;;;5.28;3.30;;;10.00;99.90;;;;;;5009515;28;20079;-73
2022/07/16 03:22:59;;;;;;;5.38;3.00;;;9.90;99.90;;;;;;5011397;28;20054;-73
2022/07/16 03:25:24;;;;;;;5.70;3.05;;;10.00;99.90;;;;;;5012975;28;20472;-73
2022/07/16 03:27:50;;;;;;;4.80;2.60;;;10.00;99.90;;;;;;5014969;28;20060;-73
2022/07/16 03:30:17;;;;;;;3.65;2.58;;;10.10;99.90;;;;;;5014577;28;20060;-73
2022/07/16 03:32:42;;;;;;;3.03;2.50;;;10.20;99.90;;;;;;5010348;28;20034;-73
2022/07/16 03:35:10;;;;;;;4.97;2.88;;;10.30;99.90;;;;;;5005747;28;20026;-73
2022/07/16 03:40:20;;;;;;;3.70;2.55;;;10.20;99.90;;;;;;5014359;28;20068;-73
2022/07/16 03:42:46;;;;;;;5.45;2.95;;;10.40;99.90;;;;;;5010326;28;20054;-73
2022/07/16 03:45:12;;;;;;;4.35;2.72;;;10.10;99.90;;;;;;5006986;28;20053;-73
2022/07/16 03:47:37;;;;;;;4.70;2.70;;;10.10;99.90;;;;;;5013601;28;20080;-73
2022/07/16 03:50:03;;;;;;;4.28;2.45;;;10.30;99.90;;;;;;5014863;28;20316;-74
2022/07/16 03:52:29;;;;;;;6.30;2.70;;;10.40;99.90;;;;;;5009612;28;20507;-73
2022/07/16 03:54:54;;;;;;;4.60;2.88;;;10.60;99.90;;;;;;5008266;28;20032;-73
2022/07/16 03:57:20;;;;;;;4.57;2.83;;;10.50;99.90;;;;;;5014499;28;20105;-73
2022/07/16 03:59:45;;;;;;;3.85;2.80;;;10.30;99.90;;;;;;5014697;28;20453;-73
2022/07/16 04:02:11;;;;;;;4.00;2.80;;;9.70;99.90;;;;;;5013934;28;20037;-73
2022/07/16 04:04:36;;;;;;;4.47;2.65;;;9.40;99.90;;;;;;5014491;28;20022;-73
2022/07/16 04:07:02;;;;;;;3.70;2.42;;;9.40;99.90;;;;;;5014353;28;20101;-74
2022/07/16 04:09:27;;;;;;;5.57;2.90;;;9.70;99.90;;;;;;5014425;28;20105;-73
2022/07/16 04:11:55;;;;;;;5.63;2.40;;;10.00;99.90;;;;;;5013554;28;20079;-73
2022/07/16 04:14:21;;;;;;;3.83;2.83;;;10.00;99.90;;;;;;5014281;28;20104;-73
2022/07/16 04:16:46;;;;;;;4.88;2.72;;;10.10;99.90;;;;;;5014220;28;20022;-73
2022/07/16 04:19:12;;;;;;;5.45;2.78;;;10.10;99.90;;;;;;5014363;28;20079;-73
2022/07/16 04:21:38;;;;;;;3.72;2.58;;;10.30;99.90;;;;;;5013597;28;20026;-73
2022/07/16 04:24:03;;;;;;;5.38;3.10;;;10.00;99.90;;;;;;5014182;28;20026;-73
2022/07/16 04:26:29;;;;;;;5.28;2.95;;;10.00;99.90;;;;;;5013946;28;20443;-73
2022/07/16 04:28:55;;;;;;;3.83;2.80;;;10.00;99.90;;;;;;5013983;28;20073;-73
2022/07/16 04:31:20;;;;;;;5.47;3.25;;;9.80;99.90;;;;;;5013564;28;20045;-73
2022/07/16 04:33:46;;;;;;;5.28;2.40;;;10.30;99.90;;;;;;5013953;28;20033;-73
2022/07/16 04:36:11;;;;;;;5.38;2.88;;;10.60;99.90;;;;;;5012306;28;20076;-73
2022/07/16 04:38:37;;;;;;;4.10;2.65;;;10.80;99.90;;;;;;5013857;28;20026;-74
2022/07/16 04:41:03;;;;;;;4.35;2.30;;;11.00;99.90;;;;;;5013462;28;20026;-73
2022/07/16 04:43:28;;;;;;;2.92;2.33;;;11.10;99.90;;;;;;5013712;28;20492;-73
2022/07/16 04:45:54;;;;;;;5.18;2.65;;;11.20;99.90;;;;;;5013603;28;20022;-73
2022/07/16 04:48:20;;;;;;;3.78;2.67;;;11.30;99.90;;;;;;5013593;28;20037;-73
2022/07/16 04:50:45;;;;;;;4.35;2.75;;;11.30;99.90;;;;;;5011704;28;20112;-73
2022/07/16 04:53:11;;;;;;;5.10;2.90;;;11.30;99.90;;;;;;5013302;28;20034;-73
2022/07/16 04:55:36;;;;;;;5.05;3.10;;;11.20;99.90;;;;;;5013326;28;20093;-73
2022/07/16 04:58:02;;;;;;;7.65;2.80;;;10.90;99.90;;;;;;5008925;28;20019;-73
2022/07/16 05:00:28;;;;;;;6.05;3.20;;;11.00;99.90;;;;;;5012202;28;20540;-73
2022/07/16 05:02:56;;;;;;;4.10;2.78;;;11.20;99.90;;;;;;5013675;28;20018;-73
2022/07/16 05:05:22;;;;;;;5.70;2.92;;;11.10;99.90;;;;;;5013353;28;20061;-73
2022/07/16 05:07:48;;;;;;;6.72;3.00;;;11.20;99.90;;;;;;5013301;28;20526;-73
2022/07/16 05:10:14;;;;;;;6.32;2.70;;;11.60;99.90;;;;;;5012603;28;20107;-73
2022/07/16 05:12:40;;;;;;;3.63;2.45;;;11.60;99.90;;;;;;5013147;28;20111;-73
2022/07/16 05:15:06;;;;;;;4.75;2.88;;;11.70;99.90;;;;;;5032437;28;20518;-73
2022/07/16 05:17:32;;;;;;;5.07;2.75;;;11.80;99.90;;;;;;5031640;28;20124;-73
2022/07/16 05:19:57;;;;;;;3.78;2.60;;;11.80;99.90;;;;;;5031563;28;20017;-73
2022/07/16 05:22:23;;;;;;;6.30;2.50;;;12.10;99.90;;;;;;5032230;28;20029;-73
2022/07/16 05:24:48;;;;;;;5.65;2.80;;;12.30;99.90;;;;;;5032545;28;20105;-73
2022/07/16 05:27:14;;;;;;;3.60;2.72;;;12.30;99.90;;;;;;5018862;28;20117;-73
2022/07/16 05:29:40;;;;;;;5.40;3.28;;;12.40;99.90;;;;;;5012805;28;20542;-73
2022/07/16 05:32:05;;;;;;;4.50;3.00;;;12.60;99.90;;;;;;5012151;28;20033;-73
2022/07/16 05:34:31;;;;;;;3.45;2.92;;;12.80;99.90;;;;;;5011652;28;20289;-73
2022/07/16 05:36:57;;;;;;;3.05;2.40;;;13.00;99.90;;;;;;5024914;28;20527;-73
2022/07/16 05:39:22;;;;;;;4.57;2.60;;;13.00;99.90;;;;;;5024952;28;20013;-73
2022/07/16 05:41:48;;;;;;;3.92;2.75;;;13.00;99.90;;;;;;5012064;28;20103;-73
2022/07/16 05:44:13;;;;;;;3.55;2.42;;;13.00;99.90;;;;;;5012685;28;20100;-73
2022/07/16 05:46:39;;;;;;;3.83;2.30;;;13.40;99.90;;;;;;5012560;28;20019;-73
2022/07/16 05:49:04;;;;;;;3.60;2.58;;;13.70;99.90;;;;;;5010828;28;20045;-73
2022/07/16 05:51:30;;;;;;;4.65;2.45;;;13.70;99.90;;;;;;5010675;28;20018;-73
2022/07/16 05:53:55;;;;;;;6.85;2.33;;;13.80;99.90;;;;;;5007750;28;20109;-73
2022/07/16 05:56:21;;;;;;;3.63;2.15;;;14.10;99.90;;;;;;5004095;28;20088;-73
2022/07/16 05:58:47;;;;;;;4.43;2.28;;;14.20;99.90;;;;;;5029285;28;20442;-73
2022/07/16 06:01:12;;;;;;;5.55;2.53;;;14.20;99.90;;;;;;5031586;28;20570;-73
2022/07/16 06:03:38;;;;;;;7.55;2.38;;;14.10;99.90;;;;;;5031956;28;20033;-73
2022/07/16 06:06:03;;;;;;;6.03;2.65;;;14.20;99.90;;;;;;5032683;28;20029;-73
2022/07/16 06:08:29;;;;;;;4.32;2.45;;;14.50;99.90;;;;;;5032635;28;20107;-73
2022/07/16 06:10:54;;;;;;;4.45;2.30;;;14.30;99.90;;;;;;5031178;28;20029;-73
2022/07/16 06:13:20;;;;;;;4.63;2.58;;;14.40;99.90;;;;;;5031711;28;20434;-73
2022/07/16 06:15:48;;;;;;;5.28;2.40;;;14.50;99.90;;;;;;5031677;28;20029;-73
2022/07/16 06:18:13;;;;;;;4.55;2.72;;;14.70;99.90;;;;;;5030364;28;20484;-73
2022/07/16 06:20:39;;;;;;;4.80;2.10;;;14.80;99.90;;;;;;5031309;28;20021;-73
2022/07/16 06:23:05;;;;;;;6.57;2.33;;;15.20;99.90;;;;;;5014007;28;20030;-73
2022/07/16 06:25:32;;;;;;;4.13;2.20;;;15.40;99.90;;;;;;5011730;28;20030;-74
2022/07/16 06:27:58;;;;;;;3.42;2.58;;;15.00;99.90;;;;;;5010696;28;20396;-74
2022/07/16 06:30:23;;;;;;;3.45;2.15;;;15.30;99.90;;;;;;5011464;28;20082;-73
2022/07/16 06:32:49;;;;;;;4.30;2.00;;;15.60;99.90;;;;;;5011772;28;20072;-73
2022/07/16 06:35:16;;;;;;;4.53;2.30;;;15.70;99.90;;;;;;5007318;28;20048;-74
2022/07/16 06:37:42;;;;;;;3.92;2.35;;;16.00;99.90;;;;;;5009443;28;20025;-73
2022/07/16 06:40:08;;;;;;;5.68;2.42;;;16.00;99.90;;;;;;5011522;28;20492;-73
2022/07/16 06:42:34;;;;;;;3.08;2.05;;;16.00;99.90;;;;;;5011244;28;20022;-73
2022/07/16 06:45:00;;;;;;;6.88;2.47;;;16.10;99.90;;;;;;5011769;28;20018;-73
2022/07/16 06:47:26;;;;;;;2.97;2.05;;;16.00;99.90;;;;;;5011566;28;20036;-73
2022/07/16 06:49:52;;;;;;;4.38;2.22;;;16.10;99.90;;;;;;5011842;28;20061;-73
2022/07/16 06:52:18;;;;;;;5.60;2.13;;;16.20;99.90;;;;;;5010880;28;20053;-74
2022/07/16 06:54:43;;;;;;;3.63;1.85;;;16.60;99.90;;;;;;5011621;28;20469;-73
2022/07/16 06:57:09;;;;;;;5.25;2.05;;;16.60;99.90;;;;;;5007121;28;20027;-73
2022/07/16 06:59:34;;;;;;;5.03;2.05;;;16.80;99.90;;;;;;5004069;28;20050;-73
2022/07/16 07:02:00;;;;;;;5.45;1.83;;;17.00;99.90;;;;;;5015073;28;20022;-73
2022/07/16 07:04:26;;;;;;;7.50;2.22;;;16.80;99.90;;;;;;5015701;28;20385;-73
2022/07/16 07:06:51;;;;;;;3.85;1.70;;;16.90;99.90;;;;;;5015441;28;20030;-73
2022/07/16 07:09:17;;;;;;;5.45;1.80;;;17.00;99.90;;;;;;5015444;28;20028;-74
2022/07/16 07:11:42;;;;;;;4.55;2.08;;;17.10;99.90;;;;;;5014881;28;20018;-73
2022/07/16 07:14:09;;;;;;;5.75;1.95;;;17.30;99.90;;;;;;5015327;28;20030;-73
2022/07/16 07:16:35;;;;;;;4.82;2.00;;;17.10;99.90;;;;;;5015398;28;20036;-73
2022/07/16 07:19:00;;;;;;;5.45;1.98;;;17.30;99.90;;;;;;5015443;28;20096;-73
2022/07/16 07:21:26;;;;;;;4.07;1.80;;;17.30;99.90;;;;;;5032533;28;20090;-73
2022/07/16 07:23:52;;;;;;;3.72;2.08;;;17.30;99.90;;;;;;5034963;28;20034;-74
2022/07/16 07:26:17;;;;;;;5.72;2.08;;;17.30;99.90;;;;;;5034804;28;20379;-73
2022/07/16 07:28:43;;;;;;;3.28;1.92;;;17.50;99.90;;;;;;5034985;28;20057;-73
2022/07/16 07:31:09;;;;;;;5.75;2.25;;;17.60;99.90;;;;;;5034302;28;20109;-74
2022/07/16 07:33:36;;;;;;;3.63;2.20;;;17.60;99.90;;;;;;5034768;28;20021;-73
2022/07/16 07:36:02;;;;;;;4.43;2.13;;;17.60;99.90;;;;;;5034716;28;20029;-73
2022/07/16 07:38:28;;;;;;;2.97;2.15;;;17.60;99.90;;;;;;5034626;28;20037;-73
2022/07/16 07:40:53;;;;;;;3.95;2.50;;;17.50;99.90;;;;;;5012974;28;20029;-74
2022/07/16 07:43:19;;;;;;;3.50;2.38;;;17.70;99.90;;;;;;5015051;28;20517;-73
2022/07/16 07:45:45;;;;;;;6.90;2.30;;;17.80;99.90;;;;;;5015102;28;20054;-74
2022/07/16 07:48:10;;;;;;;5.25;2.42;;;17.80;99.90;;;;;;5014794;28;20496;-73
2022/07/16 07:50:36;;;;;;;5.03;2.35;;;18.00;99.90;;;;;;5014052;28;20026;-73
2022/07/16 07:53:02;;;;;;;6.88;2.95;;;17.90;99.90;;;;;;5014632;28;20121;-73
2022/07/16 07:55:28;;;;;;;5.82;2.13;;;18.30;99.90;;;;;;5014543;28;20030;-73
2022/07/16 07:57:54;;;;;;;5.22;2.58;;;18.50;99.90;;;;;;5010261;28;20018;-74
2022/07/16 08:00:19;;;;;;;4.05;1.73;;;18.70;99.90;;;;;;5011592;28;20375;-73
2022/07/16 08:02:46;;;;;;;6.68;2.10;;;18.90;99.90;;;;;;5014519;28;20385;-74
2022/07/16 08:05:12;;;;;;;4.53;1.83;;;18.80;99.90;;;;;;5014525;28;20034;-73
2022/07/16 08:07:38;;;;;;;5.88;1.88;;;19.00;99.90;;;;;;5014418;28;20026;-73
2022/07/16 08:10:04;;;;;;;3.75;1.70;;;19.00;99.90;;;;;;5014493;28;20050;-74
2022/07/16 08:12:30;;;;;;;4.65;1.70;;;19.10;99.90;;;;;;5022979;28;20496;-73
2022/07/16 08:14:55;;;;;;;4.68;1.75;;;19.10;99.90;;;;;;5033957;28;20079;-73
2022/07/16 08:17:21;;;;;;;3.97;1.73;;;19.30;99.90;;;;;;5034174;28;20096;-73
2022/07/16 08:19:47;;;;;;;5.00;1.65;;;19.10;99.90;;;;;;5033920;28;20032;-73
2022/07/16 08:22:12;;;;;;;4.72;1.55;;;19.20;99.90;;;;;;5033268;28;20515;-74
2022/07/16 08:27:22;;;;;;;2.88;1.70;;;19.10;99.90;;;;;;5033955;28;20556;-74
2022/07/16 08:29:47;;;;;;;5.32;1.90;;;19.20;99.90;;;;;;5032625;28;20041;-73
2022/07/16 08:32:13;;;;;;;3.80;1.30;;;19.40;99.90;;;;;;5033189;28;20033;-74
2022/07/16 08:34:39;;;;;;;6.18;2.13;;;19.50;99.90;;;;;;5033556;28;20017;-73
2022/07/16 08:37:08;;;;;;;9.48;2.78;;;19.50;99.90;;;;;;5033844;28;20468;-73
2022/07/16 08:39:33;;;;;;;5.07;1.85;;;19.40;99.90;;;;;;5023459;28;20066;-74
2022/07/16 08:41:59;;;;;;;4.90;1.83;;;19.50;99.90;;;;;;5013132;28;20026;-73
2022/07/16 08:44:26;;;;;;;7.93;2.50;;;19.70;99.90;;;;;;5014155;28;20097;-74
2022/07/16 08:46:52;;;;;;;11.15;2.10;;;19.70;99.90;;;;;;5013395;28;20034;-73
2022/07/16 08:49:19;;;;;;;9.35;2.47;;;19.90;99.90;;;;;;5013749;28;20017;-73
2022/07/16 08:51:45;;;;;;;4.93;2.58;;;20.10;99.90;;;;;;5012908;28;20550;-74
2022/07/16 08:54:19;;;;;;;4.90;2.15;;;20.40;99.90;;;;;;5013592;28;20061;-74
2022/07/16 08:56:45;;;;;;;4.75;2.50;;;20.50;99.90;;;;;;5013610;28;20022;-73
2022/07/16 08:59:12;;;;;;;7.78;2.60;;;20.70;99.90;;;;;;5014089;28;20022;-73
2022/07/16 09:01:37;;;;;;;4.00;2.13;;;20.80;99.90;;;;;;5012726;28;20046;-72
2022/07/16 09:04:04;;;;;;;4.40;2.25;;;20.60;99.90;;;;;;5013927;28;20524;-72
2022/07/16 09:06:30;;;;;;;8.10;2.70;;;20.40;99.90;;;;;;5013464;28;20032;-72
2022/07/16 09:08:56;;;;;;;6.88;2.58;;;20.50;99.90;;;;;;5013632;28;20387;-72
2022/07/16 09:11:27;;;;;;;5.60;1.98;;;20.40;99.90;;;;;;5012822;28;20040;-71
2022/07/16 09:14:08;;;;;;;5.53;2.20;;;20.60;99.90;;;;;;5013165;28;20068;-73
2022/07/16 09:16:43;;;;;;;4.30;2.28;;;20.70;99.90;;;;;;5013161;28;20021;-74
2022/07/16 09:19:18;;;;;;;3.30;1.90;;;20.70;99.90;;;;;;5013188;28;20097;-74
2022/07/16 09:22:02;;;;;;;2.90;1.92;;;20.70;99.90;;;;;;5012282;28;20034;-73
2022/07/16 09:24:34;;;;;;;8.20;1.90;;;20.80;99.90;;;;;;5012456;28;20502;-73
2022/07/16 09:27:23;;;;;;;4.10;1.98;;;21.00;99.90;;;;;;5013102;28;20032;-74
2022/07/16 09:30:03;;;;;;;5.10;2.30;;;20.90;99.90;;;;;;5013079;28;20057;-74
2022/07/16 09:32:36;;;;;;;3.88;2.00;;;20.70;99.90;;;;;;5012191;28;20489;-73
2022/07/16 09:35:23;;;;;;;6.45;2.03;;;20.90;99.90;;;;;;5012783;28;20084;-73
2022/07/16 09:37:59;;;;;;;4.57;2.10;;;20.80;99.90;;;;;;5012951;28;20022;-74
2022/07/16 09:40:47;;;;;;;4.20;1.88;;;21.00;99.90;;;;;;5013986;28;20053;-73
2022/07/16 09:43:13;;;;;;;6.40;2.40;;;21.00;99.90;;;;;;5012644;28;20034;-73
2022/07/16 09:45:43;;;;;;;3.70;2.05;;;21.20;99.90;;;;;;5012527;28;20041;-73
2022/07/16 09:48:20;;;;;;;3.97;1.90;;;21.00;99.90;;;;;;5012578;28;20038;-73
2022/07/16 09:50:46;;;;;;;4.65;2.17;;;21.10;99.90;;;;;;5010569;28;20116;-73
2022/07/16 09:53:17;;;;;;;2.97;1.90;;;21.30;99.90;;;;;;5012204;28;20113;-73
2022/07/16 09:56:07;;;;;;;6.53;2.08;;;21.40;99.90;;;;;;5010994;28;20419;-73
2022/07/16 09:58:33;;;;;;;5.28;2.10;;;21.10;99.90;;;;;;5012296;28;20034;-74
2022/07/16 10:01:00;;;;;;;4.88;2.05;;;21.80;99.90;;;;;;5011745;28;20022;-73
2022/07/16 10:03:28;;;;;;;6.13;2.38;;;21.50;99.90;;;;;;5012264;28;20489;-73
2022/07/16 10:05:53;;;;;;;3.38;1.88;;;21.00;99.90;;;;;;5012821;28;20551;-73
2022/07/16 10:08:19;;;;;;;4.68;1.50;;;20.90;99.90;;;;;;5012754;28;20034;-73
2022/07/16 10:10:46;;;;;;;3.35;1.83;;;21.00;99.90;;;;;;5011561;28;20057;-73
2022/07/16 10:13:13;;;;;;;5.40;1.90;;;21.20;99.90;;;;;;5012068;28;20030;-73
2022/07/16 10:15:39;;;;;;;3.30;1.70;;;21.40;99.90;;;;;;5013123;28;20117;-73
2022/07/16 10:18:33;;;;;;;3.38;1.83;;;21.70;99.90;;;;;;5010800;28;20061;-74
2022/07/16 10:21:12;;;;;;;7.18;1.75;;;21.40;99.90;;;;;;5011708;28;20017;-73
2022/07/16 10:23:39;;;;;;;4.10;2.20;;;21.40;99.90;;;;;;5012152;28;20018;-73
2022/07/16 10:26:10;;;;;;;4.32;2.25;;;21.00;99.90;;;;;;5012088;28;20032;-73
2022/07/16 10:28:44;;;;;;;5.90;1.88;;;20.90;99.90;;;;;;5011846;28;20531;-74
2022/07/16 10:34:39;;;;;;;4.68;1.67;;;21.10;99.90;;;;;;5011651;28;20084;-74
2022/07/16 10:37:26;;;;;;;4.47;1.90;;;21.50;99.90;;;;;;5012394;28;20089;-73
2022/07/16 10:39:59;;;;;;;;;;;21.70;99.90;;;;;;5012347;28;20036;-73
2022/07/16 10:42:25;;;;;;;4.25;1.95;;;21.80;99.90;;;;;;5011165;28;19996;-73
2022/07/16 10:44:51;;;;;;;5.72;1.60;;;22.20;99.90;;;;;;5011733;28;20034;-73
2022/07/16 10:47:17;;;;;;;3.53;1.90;;;22.40;99.90;;;;;;5011662;28;20451;-74
2022/07/16 10:49:44;;;;;;;2.92;1.98;;;22.60;99.90;;;;;;5007225;28;20050;-74
2022/07/16 10:52:15;;;;;;;4.43;2.15;;;21.80;99.90;;;;;;5008121;28;20022;-73
2022/07/16 10:54:58;;;;;;;5.30;2.10;;;22.20;99.90;;;;;;5011703;28;20537;-73
2022/07/16 10:57:40;;;;;;;3.40;1.88;;;21.80;99.90;;;;;;5011873;28;20023;-73
2022/07/16 11:00:06;;;;;;;3.20;1.70;;;21.90;99.90;;;;;;5011671;28;20076;-74
2022/07/16 11:02:40;;;;;;;2.35;1.80;;;22.10;99.90;;;;;;5011051;28;20087;-73
2022/07/16 11:05:06;;;;;;;3.92;1.90;;;21.70;99.90;;;;;;5011576;28;20026;-73
2022/07/16 11:07:34;;;;;;;5.03;2.13;;;22.00;99.90;;;;;;5011651;28;20492;-73
2022/07/16 11:10:01;;;;;;;3.95;2.20;;;22.00;99.90;;;;;;5011748;28;20030;-73
2022/07/16 11:12:30;;;;;;;2.80;1.60;;;22.20;99.90;;;;;;5010975;28;20034;-73
2022/07/16 11:14:58;;;;;;;4.05;2.17;;;22.10;99.90;;;;;;5011278;28;20018;-73
2022/07/16 11:17:28;;;;;;;2.65;1.80;;;21.90;99.90;;;;;;5011588;28;20030;-73
2022/07/16 11:19:59;;;;;;;5.55;2.10;;;22.20;99.90;;;;;;5011687;28;20022;-73
2022/07/16 11:22:30;;;;;;;3.40;1.92;;;21.60;99.90;;;;;;5010966;28;20037;-73
2022/07/16 11:24:59;;;;;;;2.63;1.70;;;21.60;99.90;;;;;;5011352;28;20076;-73
2022/07/16 11:27:33;;;;;;;3.55;2.08;;;21.60;99.90;;;;;;5011429;28;20026;-73
2022/07/16 11:30:02;;;;;;;4.18;1.80;;;21.80;99.90;;;;;;5007274;28;20515;-73
2022/07/16 11:32:28;;;;;;;3.95;1.70;;;22.60;99.90;;;;;;5005410;28;20022;-73
2022/07/16 11:34:54;;;;;;;3.80;1.92;;;22.50;99.90;;;;;;5011371;28;20071;-73
2022/07/16 11:37:20;;;;;;;4.45;2.08;;;22.40;99.90;;;;;;5011745;28;20026;-73
2022/07/16 11:39:48;;;;;;;3.53;1.80;;;22.10;99.90;;;;;;5011260;28;20022;-73
2022/07/16 11:42:18;;;;;;;3.05;1.90;;;22.20;99.90;;;;;;5010657;28;20018;-73
2022/07/16 11:44:43;;;;;;;4.25;1.70;;;22.60;99.90;;;;;;5011288;28;20093;-73
2022/07/16 11:47:11;;;;;;;4.57;1.90;;;22.20;99.90;;;;;;5013922;28;20164;-73
2022/07/16 11:49:42;;;;;;;3.28;1.80;;;22.30;99.90;;;;;;5014886;28;20562;-73
2022/07/16 11:52:14;;;;;;;3.58;1.83;;;22.90;99.90;;;;;;5014536;28;20017;-73
2022/07/16 11:54:41;;;;;;;3.95;1.65;;;23.60;99.90;;;;;;5013372;28;20022;-73
2022/07/16 11:57:09;;;;;;;3.08;1.65;;;23.70;99.90;;;;;;5015165;28;20044;-73
2022/07/16 11:59:35;;;;;;;5.20;2.00;;;24.20;99.90;;;;;;5026417;28;20021;-73
2022/07/16 12:02:05;;;;;;;2.65;1.70;;;24.30;99.90;;;;;;5033652;28;20036;-73
2022/07/16 12:04:38;;;;;;;3.33;1.83;;;24.40;99.90;;;;;;5034244;28;20029;-74
2022/07/16 12:07:18;;;;;;;3.33;1.70;;;23.90;99.90;;;;;;5034090;28;20017;-73
2022/07/16 12:09:47;;;;;;;4.13;1.85;;;23.70;99.90;;;;;;5034316;28;20110;-73
2022/07/16 12:12:18;;;;;;;3.47;2.10;;;22.70;99.90;;;;;;5033542;28;20452;-73
2022/07/16 12:14:47;;;;;;;3.75;1.90;;;23.10;99.90;;;;;;5034125;28;20083;-74
2022/07/16 12:17:21;;;;;;;4.68;2.30;;;23.20;99.90;;;;;;5034127;28;20550;-73
2022/07/16 12:20:10;;;;;;;5.32;2.50;;;24.00;99.90;;;;;;5034057;28;20029;-74
2022/07/16 12:22:48;;;;;;;5.90;2.10;;;23.80;99.90;;;;;;5033607;28;20110;-74
2022/07/16 12:25:19;;;;;;;4.80;1.98;;;24.50;99.90;;;;;;5034038;28;20114;-74
2022/07/16 12:27:47;;;;;;;2.78;1.85;;;23.90;99.90;;;;;;5033610;28;20033;-74
2022/07/16 12:30:13;;;;;;;2.83;2.00;;;23.80;99.90;;;;;;5032299;28;20151;-73
2022/07/16 12:32:52;;;;;;;4.93;2.03;;;24.50;99.90;;;;;;5033588;28;20048;-73
2022/07/16 12:35:37;;;;;;;3.55;2.25;;;24.50;99.90;;;;;;5032560;28;20018;-73
2022/07/16 12:38:04;;;;;;;3.65;1.90;;;23.90;99.90;;;;;;5033753;28;20021;-73
2022/07/16 12:40:30;;;;;;;2.35;1.85;;;24.00;99.90;;;;;;5016038;28;20409;-73
2022/07/16 12:42:55;;;;;;;3.45;2.00;;;25.30;99.90;;;;;;5013905;28;20034;-73
2022/07/16 12:45:21;;;;;;;4.90;2.00;;;25.50;99.70;;;;;;5013642;28;20030;-74
2022/07/16 12:47:47;;;;;;;3.97;1.90;;;24.10;99.70;;;;;;5013775;28;20511;-73
2022/07/16 12:50:13;;;;;;;3.90;1.80;;;23.10;99.90;;;;;;5013402;28;20038;-73
2022/07/16 12:52:38;;;;;;;2.70;1.80;;;22.90;99.90;;;;;;5013422;28;20116;-73
2022/07/16 13:00:36;;;;;;;2.55;1.92;;;23.20;99.90;;;;;;5013169;28;20065;-73
2022/07/16 13:03:03;;;;;;;4.10;1.83;;;24.00;99.90;;;;;;5013489;28;20037;-73
2022/07/16 13:05:28;;;;;;;4.05;2.05;;;24.80;99.90;;;;;;5008720;28;20512;-73